createdAt,value
2018-09-21T00:00:22.874Z,8.73
2018-09-21T00:00:53.988Z,8.50
2018-09-21T00:01:25.140Z,8.43
2018-09-21T00:01:56.343Z,9.00
2018-09-21T00:02:27.466Z,8.58
2018-09-21T00:02:58.584Z,8.83
2018-09-21T00:03:29.725Z,9.25
2018-09-21T00:04:00.952Z,9.55
2018-09-21T00:04:32.047Z,9.05
2018-09-21T00:05:03.153Z,8.55
2018-09-21T00:05:34.304Z,9.33
2018-09-21T00:06:05.418Z,8.90
2018-09-21T00:06:36.548Z,8.38
2018-09-21T00:07:07.656Z,9.25
2018-09-21T00:07:38.814Z,8.58
2018-09-21T00:08:09.937Z,8.78
2018-09-21T00:08:41.094Z,8.15
2018-09-21T00:09:12.227Z,8.98
2018-09-21T00:09:43.352Z,8.53
2018-09-21T00:10:14.500Z,9.08
2018-09-21T00:10:45.598Z,9.28
2018-09-21T00:11:16.705Z,8.78
2018-09-21T00:11:47.876Z,9.58
2018-09-21T00:12:19.051Z,9.88
2018-09-21T00:12:50.146Z,9.00
2018-09-21T00:13:21.281Z,9.25
2018-09-21T00:13:52.499Z,9.18
2018-09-21T00:14:23.693Z,9.33
2018-09-21T00:14:54.795Z,9.80
2018-09-21T00:15:25.970Z,8.80
2018-09-21T00:15:57.081Z,9.10
2018-09-21T00:16:28.196Z,9.10
2018-09-21T00:16:59.304Z,9.85
2018-09-21T00:17:30.435Z,9.53
2018-09-21T00:18:01.525Z,10.35
2018-09-21T00:18:32.633Z,10.03
2018-09-21T00:19:03.770Z,10.32
2018-09-21T00:19:34.900Z,10.72
2018-09-21T00:20:06.059Z,11.40
2018-09-21T00:20:37.151Z,10.58
2018-09-21T00:21:08.314Z,11.28
2018-09-21T00:21:39.545Z,11.60
2018-09-21T00:22:10.674Z,11.88
2018-09-21T00:22:41.780Z,11.30
2018-09-21T00:23:12.925Z,10.88
2018-09-21T00:23:44.033Z,11.43
2018-09-21T00:24:15.200Z,11.48
2018-09-21T00:24:46.363Z,11.12
2018-09-21T00:25:17.481Z,10.95
2018-09-21T00:25:48.639Z,10.88
2018-09-21T00:26:19.748Z,10.78
2018-09-21T00:26:50.908Z,10.40
2018-09-21T00:27:22.024Z,11.38
2018-09-21T00:27:53.168Z,10.98
2018-09-21T00:28:24.294Z,10.78
2018-09-21T00:28:55.401Z,10.82
2018-09-21T00:29:26.519Z,10.78
2018-09-21T00:29:57.737Z,11.15
2018-09-21T00:30:28.912Z,10.18
2018-09-21T00:31:00.035Z,10.68
2018-09-21T00:31:31.167Z,10.43
2018-09-21T00:32:02.272Z,10.35
2018-09-21T00:32:33.431Z,9.80
2018-09-21T00:33:04.533Z,10.53
2018-09-21T00:33:35.700Z,10.18
2018-09-21T00:34:06.799Z,10.50
2018-09-21T00:34:37.914Z,9.98
2018-09-21T00:35:09.105Z,9.90
2018-09-21T00:35:40.282Z,10.78
2018-09-21T00:36:11.408Z,9.50
2018-09-21T00:36:42.524Z,9.55
2018-09-21T00:37:13.689Z,9.50
2018-09-21T00:37:44.790Z,9.78
2018-09-21T00:38:15.968Z,9.45
2018-09-21T00:38:47.092Z,9.55
2018-09-21T00:39:18.190Z,9.25
2018-09-21T00:39:49.360Z,9.75
2018-09-21T00:40:20.500Z,9.30
2018-09-21T00:40:51.660Z,9.33
2018-09-21T00:41:22.772Z,9.75
2018-09-21T00:41:53.932Z,10.30
2018-09-21T00:42:25.065Z,9.78
2018-09-21T00:42:56.225Z,9.88
2018-09-21T00:43:27.381Z,10.05
2018-09-21T00:43:58.609Z,10.32
2018-09-21T00:44:29.799Z,10.35
2018-09-21T00:45:01.022Z,10.05
2018-09-21T00:45:32.244Z,9.80
2018-09-21T00:46:03.373Z,10.70
2018-09-21T00:46:34.493Z,10.00
2018-09-21T00:47:05.616Z,10.10
2018-09-21T00:47:36.781Z,9.75
2018-09-21T00:48:07.958Z,10.15
2018-09-21T00:48:39.062Z,10.78
2018-09-21T00:49:10.167Z,10.95
2018-09-21T00:49:41.275Z,10.75
2018-09-21T00:50:12.461Z,10.58
2018-09-21T00:50:43.621Z,10.45
2018-09-21T00:51:14.797Z,10.30
2018-09-21T00:51:45.957Z,10.05
2018-09-21T00:52:17.084Z,9.75
2018-09-21T00:52:48.187Z,10.10
2018-09-21T00:53:19.366Z,10.23
2018-09-21T00:53:50.505Z,9.45
2018-09-21T00:54:21.616Z,9.45
2018-09-21T00:54:52.791Z,8.75
2018-09-21T00:55:23.909Z,9.13
2018-09-21T00:55:55.113Z,9.33
2018-09-21T00:56:26.235Z,8.90
2018-09-21T00:56:57.334Z,8.75
2018-09-21T00:57:28.426Z,9.73
2018-09-21T00:57:59.646Z,8.80
2018-09-21T00:58:30.771Z,9.20
2018-09-21T00:59:01.903Z,9.25
2018-09-21T00:59:33.012Z,9.60
2018-09-21T01:00:04.169Z,9.50
2018-09-21T01:00:35.298Z,9.20
2018-09-21T01:01:06.435Z,9.00
2018-09-21T01:01:37.553Z,8.60
2018-09-21T01:02:08.646Z,8.15
2018-09-21T01:02:39.755Z,9.08
2018-09-21T01:03:10.870Z,8.90
2018-09-21T01:03:42.039Z,8.58
2018-09-21T01:04:13.205Z,7.65
2018-09-21T01:04:44.346Z,8.18
2018-09-21T01:05:15.466Z,8.83
2018-09-21T01:05:46.594Z,8.65
2018-09-21T01:06:17.748Z,8.30
2018-09-21T01:06:48.913Z,8.53
2018-09-21T01:07:20.077Z,8.90
2018-09-21T01:07:51.241Z,7.97
2018-09-21T01:08:22.356Z,7.87
2018-09-21T01:08:53.538Z,8.13
2018-09-21T01:09:24.647Z,8.25
2018-09-21T01:09:55.746Z,7.72
2018-09-21T01:10:26.862Z,8.05
2018-09-21T01:10:58.020Z,7.62
2018-09-21T01:11:29.148Z,7.92
2018-09-21T01:12:00.283Z,7.37
2018-09-21T01:12:31.396Z,8.35
2018-09-21T01:13:02.499Z,7.65
2018-09-21T01:13:33.600Z,7.58
2018-09-21T01:14:04.704Z,7.25
2018-09-21T01:14:35.833Z,7.65
2018-09-21T01:15:06.941Z,6.72
2018-09-21T01:15:38.154Z,7.00
2018-09-21T01:16:09.333Z,6.85
2018-09-21T01:16:40.503Z,6.90
2018-09-21T01:17:11.660Z,6.97
2018-09-21T01:17:42.790Z,7.67
2018-09-21T01:18:13.896Z,7.33
2018-09-21T01:18:45.075Z,7.15
2018-09-21T01:19:16.206Z,7.50
2018-09-21T01:19:47.306Z,7.55
2018-09-21T01:20:18.402Z,6.60
2018-09-21T01:20:49.532Z,7.15
2018-09-21T01:21:20.649Z,6.87
2018-09-21T01:21:51.799Z,7.10
2018-09-21T01:22:22.901Z,6.60
2018-09-21T01:22:54.012Z,7.70
2018-09-21T01:23:25.141Z,7.10
2018-09-21T01:23:56.252Z,6.62
2018-09-21T01:24:27.430Z,6.42
2018-09-21T01:24:58.580Z,7.25
2018-09-21T01:25:29.716Z,7.15
2018-09-21T01:26:00.858Z,6.65
2018-09-21T01:26:31.994Z,6.67
2018-09-21T01:27:03.100Z,7.17
2018-09-21T01:27:34.212Z,6.67
2018-09-21T01:28:05.334Z,6.67
2018-09-21T01:28:37.344Z,6.90
2018-09-21T01:29:08.465Z,6.75
2018-09-21T01:29:39.601Z,6.15
2018-09-21T01:30:10.704Z,6.42
2018-09-21T01:30:41.857Z,6.15
2018-09-21T01:31:13.057Z,6.50
2018-09-21T01:31:44.198Z,6.10
2018-09-21T01:32:15.307Z,5.97
2018-09-21T01:32:46.455Z,6.12
2018-09-21T01:33:17.578Z,6.85
2018-09-21T01:33:48.706Z,6.50
2018-09-21T01:34:19.822Z,6.40
2018-09-21T01:34:50.995Z,6.65
2018-09-21T01:35:22.119Z,6.42
2018-09-21T01:35:53.222Z,6.33
2018-09-21T01:36:24.462Z,6.78
2018-09-21T01:36:55.572Z,6.67
2018-09-21T01:37:26.678Z,6.40
2018-09-21T01:37:57.824Z,6.60
2018-09-21T01:38:28.928Z,6.83
2018-09-21T01:39:00.040Z,6.25
2018-09-21T01:39:31.204Z,6.28
2018-09-21T01:40:02.322Z,6.20
2018-09-21T01:40:33.452Z,6.30
2018-09-21T01:41:04.547Z,6.65
2018-09-21T01:41:35.743Z,6.25
2018-09-21T01:42:06.913Z,7.08
2018-09-21T01:42:38.023Z,6.53
2018-09-21T01:43:09.131Z,6.25
2018-09-21T01:43:40.235Z,6.25
2018-09-21T01:44:11.369Z,6.22
2018-09-21T01:44:42.482Z,6.45
2018-09-21T01:45:13.599Z,6.15
2018-09-21T01:45:44.703Z,6.33
2018-09-21T01:46:15.812Z,6.30
2018-09-21T01:46:46.983Z,5.97
2018-09-21T01:47:18.207Z,5.87
2018-09-21T01:47:49.309Z,6.50
2018-09-21T01:48:20.461Z,6.55
2018-09-21T01:48:51.591Z,6.15
2018-09-21T01:49:22.708Z,6.78
2018-09-21T01:49:53.827Z,6.85
2018-09-21T01:50:25.002Z,6.75
2018-09-21T01:50:56.084Z,6.05
2018-09-21T01:51:27.192Z,6.55
2018-09-21T01:51:58.294Z,6.50
2018-09-21T01:52:29.501Z,5.97
2018-09-21T01:53:00.676Z,6.80
2018-09-21T01:53:31.861Z,6.62
2018-09-21T01:54:03.090Z,6.12
2018-09-21T01:54:34.243Z,7.20
2018-09-21T01:55:05.359Z,6.50
2018-09-21T01:55:36.516Z,6.37
2018-09-21T01:56:07.632Z,6.60
2018-09-21T01:56:38.728Z,6.42
2018-09-21T01:57:09.860Z,6.62
2018-09-21T01:57:41.055Z,6.00
2018-09-21T01:58:12.162Z,6.75
2018-09-21T01:58:43.285Z,6.17
2018-09-21T01:59:14.445Z,6.97
2018-09-21T01:59:45.594Z,6.62
2018-09-21T02:00:16.788Z,6.50
2018-09-21T02:00:48.001Z,6.05
2018-09-21T02:01:19.099Z,6.75
2018-09-21T02:01:50.222Z,6.78
2018-09-21T02:02:21.342Z,6.65
2018-09-21T02:02:52.479Z,6.42
2018-09-21T02:03:23.598Z,6.47
2018-09-21T02:03:54.719Z,6.62
2018-09-21T02:04:25.898Z,6.70
2018-09-21T02:04:57.050Z,6.95
2018-09-21T02:05:28.151Z,6.60
2018-09-21T02:05:59.265Z,6.35
2018-09-21T02:06:30.390Z,6.35
2018-09-21T02:07:01.508Z,6.37
2018-09-21T02:07:32.742Z,6.62
2018-09-21T02:08:03.911Z,6.37
2018-09-21T02:08:35.017Z,6.53
2018-09-21T02:09:06.203Z,6.60
2018-09-21T02:09:37.374Z,6.15
2018-09-21T02:10:08.475Z,6.60
2018-09-21T02:10:39.579Z,6.12
2018-09-21T02:11:10.740Z,6.58
2018-09-21T02:11:41.835Z,6.58
2018-09-21T02:12:12.951Z,6.65
2018-09-21T02:12:44.103Z,6.42
2018-09-21T02:13:15.226Z,6.62
2018-09-21T02:13:46.347Z,6.53
2018-09-21T02:14:17.453Z,7.28
2018-09-21T02:14:48.579Z,6.50
2018-09-21T02:15:19.757Z,6.45
2018-09-21T02:15:50.909Z,6.90
2018-09-21T02:16:22.032Z,6.55
2018-09-21T02:16:53.138Z,6.87
2018-09-21T02:17:24.249Z,6.65
2018-09-21T02:17:55.427Z,6.70
2018-09-21T02:18:26.540Z,6.80
2018-09-21T02:18:57.717Z,6.22
2018-09-21T02:19:28.856Z,6.67
2018-09-21T02:20:00.009Z,6.40
2018-09-21T02:20:31.200Z,6.97
2018-09-21T02:21:02.320Z,6.83
2018-09-21T02:21:33.419Z,6.33
2018-09-21T02:22:04.522Z,7.00
2018-09-21T02:22:35.681Z,6.55
2018-09-21T02:23:06.892Z,6.83
2018-09-21T02:23:38.040Z,6.45
2018-09-21T02:24:09.213Z,6.67
2018-09-21T02:24:40.324Z,6.30
2018-09-21T02:25:11.440Z,6.20
2018-09-21T02:25:42.613Z,6.20
2018-09-21T02:26:13.732Z,6.75
2018-09-21T02:26:44.835Z,6.33
2018-09-21T02:27:15.977Z,6.62
2018-09-21T02:27:47.113Z,7.22
2018-09-21T02:28:18.219Z,7.53
2018-09-21T02:28:49.346Z,7.17
2018-09-21T02:29:20.456Z,6.47
2018-09-21T02:29:51.559Z,6.42
2018-09-21T02:30:22.665Z,6.90
2018-09-21T02:30:53.832Z,6.75
2018-09-21T02:31:24.932Z,6.72
2018-09-21T02:31:56.098Z,7.00
2018-09-21T02:32:27.191Z,6.30
2018-09-21T02:32:58.299Z,6.75
2018-09-21T02:33:29.430Z,6.78
2018-09-21T02:34:00.573Z,6.83
2018-09-21T02:34:31.671Z,7.30
2018-09-21T02:35:02.855Z,7.53
2018-09-21T02:35:33.966Z,7.17
2018-09-21T02:36:05.076Z,7.40
2018-09-21T02:36:36.206Z,6.97
2018-09-21T02:37:07.344Z,7.30
2018-09-21T02:37:38.449Z,7.15
2018-09-21T02:38:09.542Z,7.55
2018-09-21T02:38:40.722Z,7.33
2018-09-21T02:39:11.834Z,7.37
2018-09-21T02:39:43.057Z,7.62
2018-09-21T02:40:14.267Z,7.30
2018-09-21T02:40:45.438Z,7.72
2018-09-21T02:41:16.616Z,7.87
2018-09-21T02:41:47.728Z,7.92
2018-09-21T02:42:18.848Z,7.47
2018-09-21T02:42:49.958Z,7.25
2018-09-21T02:43:21.117Z,8.13
2018-09-21T02:43:52.247Z,7.95
2018-09-21T02:44:23.392Z,8.45
2018-09-21T02:44:54.511Z,7.83
2018-09-21T02:45:25.731Z,7.53
2018-09-21T02:45:56.857Z,7.67
2018-09-21T02:46:27.988Z,8.28
2018-09-21T02:46:59.100Z,8.28
2018-09-21T02:47:30.211Z,7.45
2018-09-21T02:48:01.360Z,7.95
2018-09-21T02:48:32.534Z,8.13
2018-09-21T02:49:03.703Z,7.83
2018-09-21T02:49:34.879Z,8.33
2018-09-21T02:50:05.995Z,7.75
2018-09-21T02:50:37.169Z,8.28
2018-09-21T02:51:08.280Z,8.08
2018-09-21T02:51:39.390Z,8.70
2018-09-21T02:52:10.568Z,8.03
2018-09-21T02:52:41.741Z,8.03
2018-09-21T02:53:12.896Z,8.20
2018-09-21T02:53:44.068Z,8.40
2018-09-21T02:54:15.158Z,8.13
2018-09-21T02:54:46.308Z,7.62
2018-09-21T02:55:17.455Z,8.23
2018-09-21T02:55:48.609Z,7.95
2018-09-21T02:56:19.772Z,7.97
2018-09-21T02:56:50.933Z,8.45
2018-09-21T02:57:22.141Z,8.25
2018-09-21T02:57:53.255Z,7.70
2018-09-21T02:58:24.414Z,7.67
2018-09-21T02:58:55.529Z,8.33
2018-09-21T02:59:26.638Z,7.58
2018-09-21T02:59:57.804Z,7.83
2018-09-21T03:00:29.005Z,7.67
2018-09-21T03:01:00.111Z,7.45
2018-09-21T03:01:31.257Z,7.53
2018-09-21T03:02:02.362Z,7.85
2018-09-21T03:02:33.562Z,7.35
2018-09-21T03:03:04.731Z,8.23
2018-09-21T03:03:35.847Z,7.58
2018-09-21T03:04:06.948Z,7.80
2018-09-21T03:04:38.048Z,8.28
2018-09-21T03:05:09.191Z,7.85
2018-09-21T03:05:40.388Z,8.25
2018-09-21T03:06:11.537Z,7.75
2018-09-21T03:06:42.760Z,7.35
2018-09-21T03:07:13.916Z,7.50
2018-09-21T03:07:45.060Z,7.62
2018-09-21T03:08:16.198Z,8.28
2018-09-21T03:08:47.342Z,7.20
2018-09-21T03:09:18.508Z,7.55
2018-09-21T03:09:49.622Z,7.72
2018-09-21T03:10:20.728Z,7.83
2018-09-21T03:10:51.920Z,8.10
2018-09-21T03:11:23.116Z,7.67
2018-09-21T03:11:54.305Z,8.20
2018-09-21T03:12:25.432Z,7.62
2018-09-21T03:12:56.602Z,7.55
2018-09-21T03:13:27.774Z,7.83
2018-09-21T03:13:58.890Z,8.00
2018-09-21T03:14:30.017Z,8.00
2018-09-21T03:15:01.135Z,7.70
2018-09-21T03:15:32.301Z,7.80
2018-09-21T03:16:03.533Z,7.67
2018-09-21T03:16:34.679Z,7.45
2018-09-21T03:17:05.792Z,7.20
2018-09-21T03:17:36.910Z,7.50
2018-09-21T03:18:08.067Z,7.85
2018-09-21T03:18:39.203Z,7.75
2018-09-21T03:19:10.318Z,7.30
2018-09-21T03:19:41.422Z,7.92
2018-09-21T03:20:12.567Z,7.78
2018-09-21T03:20:43.682Z,7.40
2018-09-21T03:21:14.779Z,7.78
2018-09-21T03:21:45.903Z,7.80
2018-09-21T03:22:17.014Z,8.03
2018-09-21T03:22:48.147Z,7.67
2018-09-21T03:23:19.257Z,7.72
2018-09-21T03:23:50.477Z,7.97
2018-09-21T03:24:21.625Z,7.60
2018-09-21T03:24:52.731Z,7.60
2018-09-21T03:25:23.893Z,7.67
2018-09-21T03:25:55.000Z,8.20
2018-09-21T03:26:26.212Z,8.03
2018-09-21T03:26:57.320Z,7.70
2018-09-21T03:27:28.455Z,7.33
2018-09-21T03:27:59.616Z,6.97
2018-09-21T03:28:30.739Z,7.20
2018-09-21T03:29:01.837Z,7.65
2018-09-21T03:29:32.956Z,7.90
2018-09-21T03:30:04.077Z,7.92
2018-09-21T03:30:35.188Z,8.28
2018-09-21T03:31:06.384Z,7.60
2018-09-21T03:31:37.491Z,7.33
2018-09-21T03:32:08.628Z,7.33
2018-09-21T03:32:39.807Z,7.47
2018-09-21T03:33:10.958Z,7.97
2018-09-21T03:33:42.064Z,7.12
2018-09-21T03:34:13.202Z,7.70
2018-09-21T03:34:44.303Z,7.75
2018-09-21T03:35:15.424Z,7.90
2018-09-21T03:35:46.599Z,7.65
2018-09-21T03:36:17.774Z,7.80
2018-09-21T03:36:48.879Z,7.87
2018-09-21T03:37:20.023Z,7.45
2018-09-21T03:37:51.164Z,8.20
2018-09-21T03:38:22.332Z,7.53
2018-09-21T03:38:53.451Z,7.58
2018-09-21T03:39:24.631Z,7.75
2018-09-21T03:39:55.743Z,7.72
2018-09-21T03:40:26.905Z,7.75
2018-09-21T03:40:58.084Z,8.00
2018-09-21T03:41:29.233Z,8.28
2018-09-21T03:42:00.328Z,7.87
2018-09-21T03:42:31.420Z,7.95
2018-09-21T03:43:02.556Z,8.55
2018-09-21T03:43:33.670Z,7.92
2018-09-21T03:44:04.777Z,8.40
2018-09-21T03:44:35.922Z,8.25
2018-09-21T03:45:07.068Z,8.23
2018-09-21T03:45:38.174Z,7.97
2018-09-21T03:46:09.298Z,8.00
2018-09-21T03:46:40.512Z,7.87
2018-09-21T03:47:11.618Z,8.25
2018-09-21T03:47:42.739Z,8.63
2018-09-21T03:48:13.871Z,7.92
2018-09-21T03:48:45.064Z,8.38
2018-09-21T03:49:16.187Z,8.43
2018-09-21T03:49:47.306Z,8.58
2018-09-21T03:50:18.423Z,8.18
2018-09-21T03:50:49.551Z,8.35
2018-09-21T03:51:20.739Z,8.28
2018-09-21T03:51:51.881Z,8.18
2018-09-21T03:52:23.011Z,8.03
2018-09-21T03:52:54.200Z,8.20
2018-09-21T03:53:25.317Z,8.30
2018-09-21T03:53:56.459Z,7.95
2018-09-21T03:54:27.555Z,8.20
2018-09-21T03:54:58.650Z,8.13
2018-09-21T03:55:29.775Z,7.62
2018-09-21T03:56:01.001Z,7.87
2018-09-21T03:56:32.118Z,8.43
2018-09-21T03:57:03.309Z,7.53
2018-09-21T03:57:34.403Z,8.03
2018-09-21T03:58:05.503Z,7.80
2018-09-21T03:58:36.606Z,8.30
2018-09-21T03:59:07.719Z,7.75
2018-09-21T03:59:38.878Z,7.90
2018-09-21T04:00:10.088Z,8.18
2018-09-21T04:00:41.208Z,7.78
2018-09-21T04:01:12.416Z,7.97
2018-09-21T04:01:43.759Z,7.95
2018-09-21T04:02:14.862Z,8.08
2018-09-21T04:02:45.964Z,7.92
2018-09-21T04:03:17.130Z,8.25
2018-09-21T04:03:48.355Z,8.15
2018-09-21T04:04:19.482Z,7.75
2018-09-21T04:04:50.662Z,7.60
2018-09-21T04:05:21.769Z,7.97
2018-09-21T04:05:52.865Z,8.08
2018-09-21T04:06:24.045Z,7.87
2018-09-21T04:06:55.197Z,7.75
2018-09-21T04:07:26.326Z,7.65
2018-09-21T04:07:57.471Z,8.20
2018-09-21T04:08:28.604Z,8.15
2018-09-21T04:08:59.731Z,8.38
2018-09-21T04:09:30.889Z,7.67
2018-09-21T04:10:02.002Z,7.55
2018-09-21T04:10:33.184Z,8.55
2018-09-21T04:11:04.302Z,7.83
2018-09-21T04:11:35.402Z,8.00
2018-09-21T04:12:06.580Z,7.95
2018-09-21T04:12:37.744Z,8.48
2018-09-21T04:13:08.859Z,8.08
2018-09-21T04:13:39.959Z,8.63
2018-09-21T04:14:11.071Z,9.03
2018-09-21T04:14:42.270Z,8.63
2018-09-21T04:15:13.448Z,8.10
2018-09-21T04:15:44.563Z,8.08
2018-09-21T04:16:15.684Z,7.67
2018-09-21T04:16:46.867Z,8.95
2018-09-21T04:17:18.059Z,8.60
2018-09-21T04:17:49.217Z,8.20
2018-09-21T04:18:20.320Z,8.20
2018-09-21T04:18:51.423Z,8.10
2018-09-21T04:19:22.582Z,8.10
2018-09-21T04:19:53.752Z,8.63
2018-09-21T04:20:24.941Z,8.48
2018-09-21T04:20:56.080Z,8.45
2018-09-21T04:21:27.178Z,8.45
2018-09-21T04:21:58.289Z,8.33
2018-09-21T04:22:29.458Z,8.15
2018-09-21T04:23:00.755Z,8.20
2018-09-21T04:23:31.801Z,8.15
2018-09-21T04:24:02.930Z,8.10
2018-09-21T04:24:34.070Z,7.92
2018-09-21T04:25:05.240Z,7.55
2018-09-21T04:25:36.359Z,8.45
2018-09-21T04:26:07.560Z,8.45
2018-09-21T04:26:38.678Z,8.25
2018-09-21T04:27:09.901Z,8.78
2018-09-21T04:27:41.016Z,8.00
2018-09-21T04:28:12.145Z,7.85
2018-09-21T04:28:43.268Z,7.50
2018-09-21T04:29:14.458Z,7.60
2018-09-21T04:29:45.564Z,7.70
2018-09-21T04:30:16.668Z,7.40
2018-09-21T04:30:47.876Z,7.12
2018-09-21T04:31:19.010Z,7.35
2018-09-21T04:31:50.122Z,7.12
2018-09-21T04:32:21.272Z,7.65
2018-09-21T04:32:52.468Z,7.40
2018-09-21T04:33:23.589Z,7.30
2018-09-21T04:33:54.683Z,7.45
2018-09-21T04:34:25.838Z,7.55
2018-09-21T04:34:57.003Z,6.60
2018-09-21T04:35:28.109Z,6.97
2018-09-21T04:35:59.292Z,7.67
2018-09-21T04:36:30.454Z,7.70
2018-09-21T04:37:01.589Z,7.33
2018-09-21T04:37:32.691Z,6.90
2018-09-21T04:38:03.789Z,7.50
2018-09-21T04:38:34.964Z,6.80
2018-09-21T04:39:06.182Z,7.33
2018-09-21T04:39:37.310Z,6.65
2018-09-21T04:40:08.490Z,7.15
2018-09-21T04:40:39.657Z,7.25
2018-09-21T04:41:10.807Z,7.60
2018-09-21T04:41:41.939Z,7.15
2018-09-21T04:42:13.064Z,7.17
2018-09-21T04:42:44.181Z,7.00
2018-09-21T04:43:15.345Z,7.30
2018-09-21T04:43:46.541Z,7.20
2018-09-21T04:44:17.728Z,7.33
2018-09-21T04:44:48.865Z,7.33
2018-09-21T04:45:19.996Z,7.33
2018-09-21T04:45:51.224Z,7.10
2018-09-21T04:46:22.340Z,7.60
2018-09-21T04:46:53.438Z,6.83
2018-09-21T04:47:24.553Z,8.10
2018-09-21T04:47:55.676Z,7.72
2018-09-21T04:48:26.794Z,7.85
2018-09-21T04:48:57.912Z,7.22
2018-09-21T04:49:29.068Z,7.30
2018-09-21T04:50:00.252Z,7.05
2018-09-21T04:50:31.391Z,6.87
2018-09-21T04:51:02.510Z,7.00
2018-09-21T04:51:33.620Z,7.25
2018-09-21T04:52:04.755Z,7.40
2018-09-21T04:52:35.900Z,7.35
2018-09-21T04:53:07.062Z,6.72
2018-09-21T04:53:38.172Z,6.85
2018-09-21T04:54:09.387Z,6.80
2018-09-21T04:54:40.516Z,7.17
2018-09-21T04:55:11.670Z,6.78
2018-09-21T04:55:42.876Z,6.85
2018-09-21T04:56:14.043Z,7.22
2018-09-21T04:56:45.169Z,7.22
2018-09-21T04:57:16.307Z,5.95
2018-09-21T04:57:47.577Z,6.12
2018-09-21T04:58:18.762Z,6.67
2018-09-21T04:58:49.894Z,7.37
2018-09-21T04:59:21.048Z,7.20
2018-09-21T04:59:52.170Z,6.75
2018-09-21T05:00:23.269Z,7.22
2018-09-21T05:00:54.431Z,6.75
2018-09-21T05:01:25.567Z,6.10
2018-09-21T05:01:56.672Z,7.00
2018-09-21T05:02:27.788Z,7.12
2018-09-21T05:02:58.988Z,7.03
2018-09-21T05:03:30.138Z,6.83
2018-09-21T05:04:01.267Z,6.58
2018-09-21T05:04:32.418Z,7.22
2018-09-21T05:05:03.544Z,6.33
2018-09-21T05:05:34.671Z,7.15
2018-09-21T05:06:05.771Z,6.65
2018-09-21T05:06:36.925Z,7.30
2018-09-21T05:07:08.037Z,7.15
2018-09-21T05:07:39.147Z,6.75
2018-09-21T05:08:10.261Z,7.45
2018-09-21T05:08:41.365Z,6.50
2018-09-21T05:09:12.467Z,6.83
2018-09-21T05:09:43.591Z,7.17
2018-09-21T05:10:14.810Z,6.67
2018-09-21T05:10:46.039Z,5.90
2018-09-21T05:11:17.208Z,5.95
2018-09-21T05:11:48.325Z,6.55
2018-09-21T05:12:19.427Z,6.50
2018-09-21T05:12:50.516Z,6.62
2018-09-21T05:13:21.688Z,6.87
2018-09-21T05:13:52.862Z,6.53
2018-09-21T05:14:24.001Z,6.85
2018-09-21T05:14:55.136Z,7.12
2018-09-21T05:15:26.235Z,6.95
2018-09-21T05:15:57.396Z,6.75
2018-09-21T05:16:28.512Z,7.55
2018-09-21T05:16:59.666Z,6.87
2018-09-21T05:17:30.759Z,5.95
2018-09-21T05:18:01.864Z,6.15
2018-09-21T05:18:32.987Z,6.70
2018-09-21T05:19:04.093Z,7.17
2018-09-21T05:19:35.245Z,6.75
2018-09-21T05:20:06.368Z,6.78
2018-09-21T05:20:37.487Z,7.30
2018-09-21T05:21:08.739Z,7.80
2018-09-21T05:21:39.875Z,7.85
2018-09-21T05:22:10.997Z,8.20
2018-09-21T05:22:42.104Z,8.55
2018-09-21T05:23:13.199Z,7.60
2018-09-21T05:23:44.374Z,7.72
2018-09-21T05:24:15.479Z,7.70
2018-09-21T05:24:46.600Z,8.00
2018-09-21T05:25:17.782Z,6.97
2018-09-21T05:25:48.934Z,7.85
2018-09-21T05:26:20.239Z,7.00
2018-09-21T05:26:51.404Z,7.67
2018-09-21T05:27:22.517Z,7.30
2018-09-21T05:27:53.614Z,7.25
2018-09-21T05:28:24.726Z,7.55
2018-09-21T05:28:55.865Z,7.45
2018-09-21T05:29:27.048Z,7.70
2018-09-21T05:29:58.158Z,8.08
2018-09-21T05:30:29.255Z,8.05
2018-09-21T05:31:00.399Z,7.62
2018-09-21T05:31:31.567Z,7.03
2018-09-21T05:32:02.752Z,7.08
2018-09-21T05:32:33.860Z,7.62
2018-09-21T05:33:05.046Z,7.20
2018-09-21T05:33:36.159Z,7.55
2018-09-21T05:34:07.325Z,7.55
2018-09-21T05:34:38.556Z,7.70
2018-09-21T05:35:09.799Z,7.10
2018-09-21T05:35:40.883Z,7.85
2018-09-21T05:36:11.996Z,7.50
2018-09-21T05:36:43.218Z,7.67
2018-09-21T05:37:14.432Z,7.33
2018-09-21T05:37:45.553Z,7.45
2018-09-21T05:38:16.736Z,7.60
2018-09-21T05:38:47.834Z,7.85
2018-09-21T05:39:18.979Z,7.62
2018-09-21T05:39:50.081Z,6.75
2018-09-21T05:40:21.195Z,6.70
2018-09-21T05:40:52.413Z,7.40
2018-09-21T05:41:23.524Z,8.33
2018-09-21T05:41:54.678Z,8.20
2018-09-21T05:42:25.813Z,8.00
2018-09-21T05:42:56.933Z,7.80
2018-09-21T05:43:28.095Z,8.20
2018-09-21T05:43:59.322Z,7.00
2018-09-21T05:44:30.510Z,6.53
2018-09-21T05:45:01.686Z,6.40
2018-09-21T05:45:32.809Z,6.85
2018-09-21T05:46:03.906Z,6.65
2018-09-21T05:46:35.032Z,6.97
2018-09-21T05:47:06.307Z,6.90
2018-09-21T05:47:37.390Z,7.65
2018-09-21T05:48:08.500Z,7.72
2018-09-21T05:48:39.650Z,6.80
2018-09-21T05:49:10.769Z,6.78
2018-09-21T05:49:41.900Z,6.80
2018-09-21T05:50:13.021Z,6.95
2018-09-21T05:50:44.188Z,7.25
2018-09-21T05:51:15.395Z,7.60
2018-09-21T05:51:46.494Z,8.10
2018-09-21T05:52:17.607Z,8.53
2018-09-21T05:52:48.783Z,7.62
2018-09-21T05:53:19.917Z,7.50
2018-09-21T05:53:51.033Z,8.15
2018-09-21T05:54:22.151Z,7.60
2018-09-21T05:54:53.262Z,7.00
2018-09-21T05:55:24.441Z,6.90
2018-09-21T05:55:55.539Z,7.15
2018-09-21T05:56:26.706Z,6.90
2018-09-21T05:56:57.848Z,7.83
2018-09-21T05:57:29.014Z,7.30
2018-09-21T05:58:00.146Z,7.45
2018-09-21T05:58:31.995Z,6.97
2018-09-21T05:59:03.130Z,7.15
2018-09-21T05:59:34.358Z,6.75
2018-09-21T06:00:05.579Z,6.70
2018-09-21T06:00:36.764Z,6.08
2018-09-21T06:01:07.909Z,7.20
2018-09-21T06:01:39.075Z,7.40
2018-09-21T06:02:10.240Z,7.65
2018-09-21T06:02:42.227Z,6.35
2018-09-21T06:03:13.331Z,6.28
2018-09-21T06:03:44.560Z,6.47
2018-09-21T06:04:15.739Z,6.70
2018-09-21T06:04:46.843Z,7.22
2018-09-21T06:05:17.967Z,6.95
2018-09-21T06:05:49.130Z,6.65
2018-09-21T06:06:20.304Z,6.53
2018-09-21T06:06:51.496Z,6.70
2018-09-21T06:07:23.353Z,6.50
2018-09-21T06:07:54.554Z,6.60
2018-09-21T06:08:25.694Z,6.37
2018-09-21T06:08:56.828Z,6.47
2018-09-21T06:09:28.010Z,5.40
2018-09-21T06:09:59.162Z,5.60
2018-09-21T06:10:30.352Z,5.72
2018-09-21T06:11:01.463Z,5.97
2018-09-21T06:11:32.653Z,5.80
2018-09-21T06:12:03.841Z,5.87
2018-09-21T06:12:34.984Z,5.97
2018-09-21T06:13:06.093Z,6.05
2018-09-21T06:13:37.356Z,5.30
2018-09-21T06:14:08.551Z,5.83
2018-09-21T06:14:39.707Z,5.42
2018-09-21T06:15:10.913Z,5.53
2018-09-21T06:15:42.052Z,5.50
2018-09-21T06:16:13.194Z,5.80
2018-09-21T06:16:44.377Z,5.50
2018-09-21T06:17:15.510Z,5.67
2018-09-21T06:17:46.682Z,6.17
2018-09-21T06:18:17.804Z,5.95
2018-09-21T06:18:48.919Z,6.83
2018-09-21T06:19:20.056Z,5.97
2018-09-21T06:19:51.210Z,5.97
2018-09-21T06:20:22.431Z,6.03
2018-09-21T06:20:53.620Z,5.72
2018-09-21T06:21:24.790Z,5.47
2018-09-21T06:21:55.962Z,6.30
2018-09-21T06:22:27.158Z,5.92
2018-09-21T06:22:58.352Z,6.35
2018-09-21T06:23:29.456Z,5.65
2018-09-21T06:24:00.681Z,5.62
2018-09-21T06:24:31.801Z,6.30
2018-09-21T06:25:02.916Z,5.92
2018-09-21T06:25:34.124Z,5.78
2018-09-21T06:26:05.298Z,5.97
2018-09-21T06:26:36.427Z,6.35
2018-09-21T06:27:07.646Z,6.17
2018-09-21T06:27:38.822Z,5.77
2018-09-21T06:28:10.066Z,5.90
2018-09-21T06:28:41.209Z,5.60
2018-09-21T06:29:12.314Z,5.90
2018-09-21T06:29:43.411Z,5.77
2018-09-21T06:30:14.507Z,6.50
2018-09-21T06:30:45.669Z,5.67
2018-09-21T06:31:16.789Z,5.77
2018-09-21T06:31:47.959Z,5.43
2018-09-21T06:32:19.082Z,5.97
2018-09-21T06:32:51.084Z,5.13
2018-09-21T06:33:22.283Z,5.87
2018-09-21T06:33:53.431Z,6.10
2018-09-21T06:34:25.574Z,5.63
2018-09-21T06:34:56.940Z,5.63
2018-09-21T06:35:28.074Z,5.87
2018-09-21T06:35:59.179Z,6.63
2018-09-21T06:36:30.323Z,5.50
2018-09-21T06:37:01.516Z,6.07
2018-09-21T06:37:32.729Z,5.67
2018-09-21T06:38:03.886Z,5.60
2018-09-21T06:38:35.010Z,5.33
2018-09-21T06:39:06.208Z,5.50
2018-09-21T06:39:37.275Z,5.50
2018-09-21T06:40:08.404Z,5.17
2018-09-21T06:40:39.534Z,5.70
2018-09-21T06:41:10.691Z,5.47
2018-09-21T06:41:41.870Z,5.37
2018-09-21T06:42:12.997Z,5.60
2018-09-21T06:42:44.142Z,5.93
2018-09-21T06:43:15.264Z,5.80
2018-09-21T06:43:46.351Z,6.00
2018-09-21T06:44:17.493Z,5.93
2018-09-21T06:44:48.599Z,5.50
2018-09-21T06:45:19.739Z,5.13
2018-09-21T06:45:50.870Z,5.60
2018-09-21T06:46:21.989Z,5.77
2018-09-21T06:46:53.116Z,6.17
2018-09-21T06:47:25.267Z,5.43
2018-09-21T06:47:56.332Z,5.80
2018-09-21T06:48:27.530Z,5.30
2018-09-21T06:48:58.652Z,5.40
2018-09-21T06:49:29.766Z,5.67
2018-09-21T06:50:00.868Z,5.50
2018-09-21T06:50:32.046Z,5.30
2018-09-21T06:51:03.182Z,5.57
2018-09-21T06:51:34.330Z,5.60
2018-09-21T06:52:05.441Z,5.57
2018-09-21T06:52:36.566Z,5.30
2018-09-21T06:53:07.685Z,5.27
2018-09-21T06:53:38.885Z,4.97